createdAt,value
2019-03-29T00:01:48.937Z,96057.36
2019-03-29T00:04:14.893Z,96062.03
2019-03-29T00:06:40.989Z,96055.91
2019-03-29T00:09:07.021Z,96064.52
2019-03-29T00:11:33.027Z,96057.77
2019-03-29T00:13:59.066Z,96063.66
2019-03-29T00:16:25.917Z,96064.57
2019-03-29T00:18:52.148Z,96071.02
2019-03-29T00:21:18.109Z,96074.30
2019-03-29T00:23:44.099Z,96070.50
2019-03-29T00:26:10.113Z,96073.59
2019-03-29T00:28:36.852Z,96077.75
2019-03-29T00:31:02.955Z,96077.38
2019-03-29T00:33:28.931Z,96084.88
2019-03-29T00:35:54.930Z,96086.52
2019-03-29T00:38:20.958Z,96083.70
2019-03-29T00:40:46.903Z,96084.25
2019-03-29T00:43:12.865Z,96092.20
2019-03-29T00:45:38.875Z,96088.30
2019-03-29T00:48:04.823Z,96085.00
2019-03-29T00:50:30.866Z,96077.48
2019-03-29T00:52:56.821Z,96077.69
2019-03-29T00:55:22.827Z,96084.13
2019-03-29T00:57:48.854Z,96078.50
2019-03-29T01:00:14.866Z,96082.38
2019-03-29T01:02:40.914Z,96069.34
2019-03-29T01:05:06.941Z,96067.33
2019-03-29T01:07:32.965Z,96065.78
2019-03-29T01:09:58.911Z,96070.18
2019-03-29T01:12:24.905Z,96062.64
2019-03-29T01:14:50.931Z,96064.25
2019-03-29T01:17:16.876Z,96048.33
2019-03-29T01:19:42.916Z,96054.09
2019-03-29T01:22:08.916Z,96053.24
2019-03-29T01:24:34.976Z,96046.54
2019-03-29T01:27:01.062Z,96049.06
2019-03-29T01:29:27.084Z,96052.38
2019-03-29T01:31:53.036Z,96052.38
2019-03-29T01:34:19.059Z,96052.78
2019-03-29T01:36:45.017Z,96052.84
2019-03-29T01:39:11.074Z,96055.88
2019-03-29T01:41:37.147Z,96053.52
2019-03-29T01:44:03.122Z,96054.45
2019-03-29T01:46:29.147Z,96056.81
2019-03-29T01:48:55.177Z,96065.58
2019-03-29T01:51:21.210Z,96059.44
2019-03-29T01:53:47.156Z,96061.42
2019-03-29T01:56:13.126Z,96058.68
2019-03-29T01:58:39.162Z,96060.38
2019-03-29T02:01:05.110Z,96055.48
2019-03-29T02:03:31.064Z,96056.86
2019-03-29T02:05:57.053Z,96054.66
2019-03-29T02:08:35.202Z,96051.36
2019-03-29T02:10:50.870Z,96058.84
2019-03-29T02:13:16.924Z,96055.89
2019-03-29T02:15:43.002Z,96052.72
2019-03-29T02:18:09.036Z,96058.79
2019-03-29T02:20:35.020Z,96053.87
2019-03-29T02:23:00.993Z,96066.92
2019-03-29T02:25:26.944Z,96053.58
2019-03-29T02:27:53.095Z,96063.22
2019-03-29T02:30:19.470Z,96064.83
2019-03-29T02:32:45.428Z,96060.73
2019-03-29T02:35:11.920Z,96068.08
2019-03-29T02:37:38.058Z,96064.73
2019-03-29T02:40:04.019Z,96066.67
2019-03-29T02:42:29.963Z,96073.52
2019-03-29T02:44:55.940Z,96077.39
2019-03-29T02:47:22.102Z,96073.01
2019-03-29T02:49:48.297Z,96070.07
2019-03-29T02:52:14.316Z,96073.07
2019-03-29T02:54:40.321Z,96075.55
2019-03-29T02:57:06.349Z,96071.80
2019-03-29T02:59:32.304Z,96067.64
2019-03-29T03:01:58.282Z,96076.72
2019-03-29T03:04:24.352Z,96072.75
2019-03-29T03:06:50.300Z,96074.23
2019-03-29T03:09:16.375Z,96072.20
2019-03-29T03:11:42.354Z,96079.11
2019-03-29T03:14:08.437Z,96087.76
2019-03-29T03:16:34.527Z,96080.57
2019-03-29T03:19:00.596Z,96083.63
2019-03-29T03:21:26.604Z,96085.95
2019-03-29T03:23:52.579Z,96074.79
2019-03-29T03:26:18.541Z,96077.27
2019-03-29T03:28:44.525Z,96086.09
2019-03-29T03:31:10.594Z,96087.36
2019-03-29T03:33:36.619Z,96082.05
2019-03-29T03:36:02.669Z,96083.36
2019-03-29T03:38:28.612Z,96084.37
2019-03-29T03:40:54.614Z,96084.45
2019-03-29T03:43:20.564Z,96083.13
2019-03-29T03:45:46.521Z,96082.45
2019-03-29T03:48:12.606Z,96087.16
2019-03-29T03:50:38.659Z,96093.42
2019-03-29T03:53:04.612Z,96092.63
2019-03-29T03:55:30.748Z,96092.80
2019-03-29T03:57:58.001Z,96100.45
2019-03-29T04:00:24.235Z,96096.09
2019-03-29T04:02:50.305Z,96092.51
2019-03-29T04:05:16.250Z,96091.09
2019-03-29T04:07:42.370Z,96099.42
2019-03-29T04:10:08.443Z,96108.30
2019-03-29T04:12:34.423Z,96101.84
2019-03-29T04:15:00.469Z,96108.53
2019-03-29T04:17:26.699Z,96102.25
2019-03-29T04:19:52.761Z,96103.56
2019-03-29T04:22:18.853Z,96101.39
2019-03-29T04:24:44.892Z,96105.72
2019-03-29T04:27:10.966Z,96107.18
2019-03-29T04:29:36.932Z,96110.38
2019-03-29T04:32:02.907Z,96114.41
2019-03-29T04:34:29.066Z,96106.23
2019-03-29T04:36:55.144Z,96110.34
2019-03-29T04:39:21.114Z,96108.92
2019-03-29T04:41:47.155Z,96104.70
2019-03-29T04:44:13.234Z,96110.25
2019-03-29T04:46:39.244Z,96107.00
2019-03-29T04:49:05.289Z,96112.14
2019-03-29T04:51:31.296Z,96112.66
2019-03-29T04:53:57.367Z,96112.16
2019-03-29T04:56:23.348Z,96117.94
2019-03-29T04:58:49.357Z,96110.89
2019-03-29T05:01:17.351Z,96117.39
2019-03-29T05:03:43.195Z,96113.16
2019-03-29T05:06:09.242Z,96120.58
2019-03-29T05:08:35.193Z,96125.84
2019-03-29T05:11:01.282Z,96121.75
2019-03-29T05:13:27.245Z,96126.91
2019-03-29T05:15:53.199Z,96125.70
2019-03-29T05:18:19.207Z,96122.45
2019-03-29T05:20:45.165Z,96123.77
2019-03-29T05:23:11.288Z,96123.86
2019-03-29T05:25:37.358Z,96129.26
2019-03-29T05:28:03.428Z,96125.61
2019-03-29T05:30:29.402Z,96119.41
2019-03-29T05:32:55.389Z,96124.06
2019-03-29T05:35:21.487Z,96124.25
2019-03-29T05:37:47.533Z,96125.20
2019-03-29T05:40:13.658Z,96131.91
2019-03-29T05:42:39.622Z,96125.62
2019-03-29T05:45:05.702Z,96134.06
2019-03-29T05:47:31.667Z,96135.83
2019-03-29T05:49:57.673Z,96130.31
2019-03-29T05:52:23.606Z,96128.52
2019-03-29T05:54:49.588Z,96136.72
2019-03-29T05:57:15.597Z,96136.57
2019-03-29T05:59:41.524Z,96139.58
2019-03-29T06:02:07.500Z,96140.77
2019-03-29T06:04:33.495Z,96145.77
2019-03-29T06:06:59.567Z,96144.94
2019-03-29T06:09:25.692Z,96150.52
2019-03-29T06:11:51.774Z,96150.38
2019-03-29T06:14:17.746Z,96151.28
2019-03-29T06:16:43.829Z,96148.61
2019-03-29T06:19:09.825Z,96154.73
2019-03-29T06:21:35.775Z,96154.78
2019-03-29T06:24:02.230Z,96147.63
2019-03-29T06:26:28.253Z,96152.41
2019-03-29T06:28:54.264Z,96150.38
2019-03-29T06:31:20.326Z,96157.21
2019-03-29T06:33:46.437Z,96146.83
2019-03-29T06:36:12.395Z,96145.61
2019-03-29T06:38:38.471Z,96152.00
2019-03-29T06:41:04.478Z,96145.29
2019-03-29T06:43:30.503Z,96149.47
2019-03-29T06:45:56.543Z,96140.13
2019-03-29T06:48:22.680Z,96137.95
2019-03-29T06:50:48.847Z,96133.08
2019-03-29T06:53:15.059Z,96139.94
2019-03-29T06:55:41.014Z,96137.13
2019-03-29T06:58:06.966Z,96127.48
2019-03-29T07:00:33.011Z,96131.94
2019-03-29T07:02:59.086Z,96118.92
2019-03-29T07:05:25.176Z,96131.75
2019-03-29T07:07:51.302Z,96124.55
2019-03-29T07:10:17.260Z,96125.53
2019-03-29T07:12:43.282Z,96125.04
2019-03-29T07:15:09.351Z,96127.77
2019-03-29T07:17:35.431Z,96123.44
2019-03-29T07:20:01.615Z,96120.89
2019-03-29T07:22:27.645Z,96120.08
2019-03-29T07:24:53.597Z,96113.13
2019-03-29T07:27:19.557Z,96115.27
2019-03-29T07:29:45.617Z,96108.30
2019-03-29T07:32:11.640Z,96111.22
2019-03-29T07:34:37.808Z,96104.13
2019-03-29T07:37:05.777Z,96114.27
2019-03-29T07:39:31.797Z,96109.95
2019-03-29T07:41:58.024Z,96106.81
2019-03-29T07:44:23.994Z,96108.58
2019-03-29T07:46:50.056Z,96102.20
2019-03-29T07:49:16.115Z,96097.60
2019-03-29T07:51:42.146Z,96094.52
2019-03-29T07:54:08.213Z,96096.20
2019-03-29T07:56:34.297Z,96088.09
2019-03-29T08:13:24.253Z,96076.14
2019-03-29T08:15:50.299Z,96067.82
2019-03-29T08:18:16.365Z,96075.20
2019-03-29T08:20:44.382Z,96076.14
2019-03-29T08:23:10.304Z,96069.90
2019-03-29T08:25:36.317Z,96065.44
2019-03-29T08:28:02.362Z,96063.22
2019-03-29T08:30:28.369Z,96068.14
2019-03-29T08:32:54.348Z,96067.07
2019-03-29T08:35:20.495Z,96059.28
2019-03-29T08:37:46.479Z,96069.64
2019-03-29T08:40:12.459Z,96061.28
2019-03-29T08:42:38.502Z,96062.52
2019-03-29T08:45:04.527Z,96058.68
2019-03-29T08:47:30.530Z,96058.15
2019-03-29T08:49:56.587Z,96056.20
2019-03-29T08:52:22.649Z,96055.72
2019-03-29T08:54:51.200Z,96055.33
2019-03-29T08:57:16.633Z,96049.09
2019-03-29T08:59:42.659Z,96042.41
2019-03-29T09:02:08.775Z,96039.39
2019-03-29T09:04:34.863Z,96033.77
2019-03-29T09:07:00.893Z,96027.52
2019-03-29T09:09:26.934Z,96042.03
2019-03-29T09:11:53.001Z,96035.48
2019-03-29T09:14:19.095Z,96035.30
2019-03-29T09:16:45.213Z,96025.01
2019-03-29T09:19:11.249Z,96018.66
2019-03-29T09:21:37.273Z,96019.12
2019-03-29T09:24:03.262Z,96018.55
2019-03-29T09:26:29.228Z,96005.24
2019-03-29T09:28:55.214Z,96010.66
2019-03-29T09:31:21.288Z,95999.13
2019-03-29T09:33:47.320Z,95995.19
2019-03-29T09:36:13.424Z,95991.02
2019-03-29T09:38:39.417Z,95989.04
2019-03-29T09:41:05.481Z,95993.05
2019-03-29T09:43:31.455Z,95977.72
2019-03-29T09:45:57.571Z,95972.08
2019-03-29T09:48:23.558Z,95971.25
2019-03-29T09:50:50.905Z,95955.08
2019-03-29T09:53:17.392Z,95954.72
2019-03-29T09:55:45.701Z,95962.02
2019-03-29T09:58:11.498Z,95950.58
2019-03-29T10:00:37.465Z,95954.36
2019-03-29T10:03:03.434Z,95951.14
2019-03-29T10:05:31.332Z,95960.26
2019-03-29T10:07:57.550Z,95951.25
2019-03-29T10:10:23.606Z,95937.48
2019-03-29T10:12:49.753Z,95959.44
2019-03-29T10:15:15.724Z,95959.44
2019-03-29T10:17:41.769Z,95946.73
2019-03-29T10:20:07.765Z,95945.94
2019-03-29T10:22:33.724Z,95937.34
2019-03-29T10:25:02.099Z,95949.09
2019-03-29T10:27:27.612Z,95926.88
2019-03-29T10:29:53.618Z,95926.88
2019-03-29T10:32:19.686Z,95939.23
2019-03-29T10:34:45.723Z,95938.57
2019-03-29T10:37:11.720Z,95931.98
2019-03-29T10:39:37.754Z,95928.89
2019-03-29T10:42:03.751Z,95931.87
2019-03-29T10:44:30.011Z,95917.87
2019-03-29T10:46:56.503Z,95923.65
2019-03-29T10:49:22.604Z,95915.98
2019-03-29T10:51:48.755Z,95924.62
2019-03-29T10:54:14.853Z,95917.09
2019-03-29T10:56:40.975Z,95922.53
2019-03-29T10:59:07.102Z,95917.86
2019-03-29T11:01:33.115Z,95926.29
2019-03-29T11:03:59.163Z,95929.88
2019-03-29T11:06:25.119Z,95920.03
2019-03-29T11:08:51.117Z,95920.94
2019-03-29T11:11:17.232Z,95922.45
2019-03-29T11:13:43.253Z,95914.13
2019-03-29T11:16:09.295Z,95911.94
2019-03-29T11:18:35.329Z,95921.23
2019-03-29T11:21:01.405Z,95927.28
2019-03-29T11:23:27.453Z,95917.56
2019-03-29T11:25:53.455Z,95916.69
2019-03-29T11:28:19.508Z,95915.98
2019-03-29T11:30:45.647Z,95907.16
2019-03-29T11:33:12.015Z,95905.32
2019-03-29T11:35:38.125Z,95906.29
2019-03-29T11:38:04.242Z,95911.09
2019-03-29T11:40:30.323Z,95900.02
2019-03-29T11:42:56.610Z,95898.37
2019-03-29T11:45:22.617Z,95895.72
2019-03-29T11:47:48.721Z,95890.55
2019-03-29T11:50:14.738Z,95889.98
2019-03-29T11:52:40.955Z,95894.67
2019-03-29T11:55:06.970Z,95889.70
2019-03-29T11:57:33.057Z,95894.78
2019-03-29T11:59:59.053Z,95893.45
2019-03-29T12:02:31.423Z,95882.12
2019-03-29T12:04:53.055Z,95889.05
2019-03-29T12:07:19.187Z,95883.09
2019-03-29T12:09:45.177Z,95878.48
2019-03-29T12:12:11.194Z,95877.75
2019-03-29T12:14:37.172Z,95874.20
2019-03-29T12:17:03.372Z,95888.86
2019-03-29T12:19:29.311Z,95872.78
2019-03-29T12:21:55.345Z,95867.05
2019-03-29T12:24:21.389Z,95880.82
2019-03-29T12:26:47.384Z,95866.90
2019-03-29T12:29:13.377Z,95861.50
2019-03-29T12:31:39.500Z,95862.66
2019-03-29T12:34:05.818Z,95854.85
2019-03-29T12:36:31.905Z,95864.41
2019-03-29T12:38:57.969Z,95853.63
2019-03-29T12:41:23.937Z,95851.37
2019-03-29T12:43:55.992Z,95852.38
2019-03-29T12:46:17.972Z,95858.50
2019-03-29T12:48:44.082Z,95850.24
2019-03-29T12:51:10.063Z,95833.02
2019-03-29T12:53:36.132Z,95842.83
2019-03-29T12:56:02.099Z,95842.41
2019-03-29T12:58:28.224Z,95845.56
2019-03-29T13:00:54.288Z,95840.96
2019-03-29T13:03:20.271Z,95831.50
2019-03-29T13:05:46.455Z,95844.52
2019-03-29T13:08:12.694Z,95839.77
2019-03-29T13:10:38.713Z,95854.83
2019-03-29T13:13:04.869Z,95847.73
2019-03-29T13:15:30.879Z,95836.80
2019-03-29T13:17:56.979Z,95828.12
2019-03-29T13:20:23.050Z,95835.82
2019-03-29T13:22:49.168Z,95838.63
2019-03-29T13:25:15.197Z,95830.63
2019-03-29T13:27:41.298Z,95839.55
2019-03-29T13:30:07.377Z,95834.89
2019-03-29T13:32:33.722Z,95822.20
2019-03-29T13:35:00.013Z,95825.31
2019-03-29T13:37:25.984Z,95823.12
2019-03-29T13:39:52.067Z,95832.95
2019-03-29T13:42:18.086Z,95829.30
2019-03-29T13:44:44.099Z,95824.66
2019-03-29T13:47:10.258Z,95818.09
2019-03-29T13:49:36.246Z,95818.10
2019-03-29T13:52:02.276Z,95820.66
2019-03-29T13:54:28.269Z,95818.50
2019-03-29T13:56:54.334Z,95824.63
2019-03-29T13:59:20.359Z,95818.37
2019-03-29T14:01:46.479Z,95832.19
2019-03-29T14:04:12.537Z,95829.85
2019-03-29T14:06:38.483Z,95831.95
2019-03-29T14:09:04.558Z,95833.27
2019-03-29T14:11:30.633Z,95827.05
2019-03-29T14:13:56.616Z,95826.44
2019-03-29T14:16:22.592Z,95830.23
2019-03-29T14:18:48.594Z,95822.57
2019-03-29T14:21:14.629Z,95816.69
2019-03-29T14:23:40.587Z,95830.44
2019-03-29T14:26:06.739Z,95826.57
2019-03-29T14:28:32.729Z,95805.66
2019-03-29T14:30:58.788Z,95822.33
2019-03-29T14:33:24.770Z,95813.42
2019-03-29T14:35:50.828Z,95810.06
2019-03-29T14:38:16.898Z,95800.37
2019-03-29T14:40:42.995Z,95803.97
2019-03-29T14:43:08.986Z,95801.27
2019-03-29T14:45:34.954Z,95796.06
2019-03-29T14:48:01.064Z,95796.53
2019-03-29T14:50:27.086Z,95801.64
2019-03-29T14:52:53.137Z,95806.38
2019-03-29T14:55:19.136Z,95803.78
2019-03-29T14:57:45.236Z,95805.41
2019-03-29T15:00:11.704Z,95796.98
2019-03-29T15:02:37.768Z,95795.17
2019-03-29T15:05:03.815Z,95798.37
2019-03-29T15:07:29.937Z,95794.18
2019-03-29T15:09:56.132Z,95792.30
2019-03-29T15:12:22.241Z,95798.81
2019-03-29T15:14:48.207Z,95795.58
2019-03-29T15:17:14.319Z,95799.80
2019-03-29T15:19:40.295Z,95797.09
2019-03-29T15:22:06.225Z,95795.28
2019-03-29T15:24:32.204Z,95793.75
2019-03-29T15:26:58.266Z,95793.44
2019-03-29T15:29:24.237Z,95789.89
2019-03-29T15:31:50.237Z,95788.06
2019-03-29T15:34:16.276Z,95787.76
2019-03-29T15:36:42.318Z,95791.42
2019-03-29T15:39:08.324Z,95784.41
2019-03-29T15:41:34.393Z,95787.25
2019-03-29T15:44:00.384Z,95791.78
2019-03-29T15:46:26.367Z,95801.19
2019-03-29T15:48:52.435Z,95790.62
2019-03-29T15:51:18.402Z,95792.33
2019-03-29T15:53:44.388Z,95801.73
2019-03-29T15:56:10.417Z,95799.75
2019-03-29T15:58:36.528Z,95804.94
2019-03-29T16:01:02.550Z,95808.00
2019-03-29T16:03:28.573Z,95812.31
2019-03-29T16:05:54.569Z,95826.14
2019-03-29T16:08:20.648Z,95819.99
2019-03-29T16:10:46.664Z,95822.31
2019-03-29T16:13:12.655Z,95825.39
2019-03-29T16:15:38.658Z,95829.57
2019-03-29T16:18:04.742Z,95834.45
2019-03-29T16:20:30.846Z,95827.13
2019-03-29T16:22:56.880Z,95830.92
2019-03-29T16:25:22.861Z,95838.41
2019-03-29T16:27:48.935Z,95838.41
2019-03-29T16:30:15.109Z,95834.69
2019-03-29T16:32:41.222Z,95834.20
2019-03-29T16:35:07.321Z,95841.27
2019-03-29T16:37:33.460Z,95845.56
2019-03-29T16:39:59.684Z,95844.06
2019-03-29T16:42:25.713Z,95848.82
2019-03-29T16:44:51.899Z,95846.37
2019-03-29T16:47:17.948Z,95850.97
2019-03-29T16:49:43.948Z,95854.17
2019-03-29T16:52:10.019Z,95844.44
2019-03-29T16:54:36.168Z,95848.98
2019-03-29T16:57:02.245Z,95849.39
2019-03-29T16:59:28.313Z,95849.11
2019-03-29T17:01:55.576Z,95846.85
2019-03-29T17:04:21.766Z,95846.94
2019-03-29T17:06:47.724Z,95846.19
2019-03-29T17:09:13.808Z,95858.63
2019-03-29T17:11:40.021Z,95856.82
2019-03-29T17:14:06.044Z,95860.52
2019-03-29T17:16:32.091Z,95858.78
2019-03-29T17:18:58.060Z,95865.09
2019-03-29T17:21:24.166Z,95868.50
2019-03-29T17:23:52.733Z,95874.17
2019-03-29T17:26:18.073Z,95865.91
2019-03-29T17:28:44.082Z,95863.08
2019-03-29T17:31:11.556Z,95863.91
2019-03-29T17:33:37.571Z,95862.47
2019-03-29T17:36:06.426Z,95861.65
2019-03-29T17:38:32.489Z,95856.93
2019-03-29T17:40:58.666Z,95861.98
2019-03-29T17:43:24.627Z,95852.22
2019-03-29T17:45:50.653Z,95852.22
2019-03-29T17:48:16.645Z,95860.48
2019-03-29T17:50:42.720Z,95870.83
2019-03-29T17:53:08.689Z,95877.48
2019-03-29T17:55:34.710Z,95882.80
2019-03-29T17:58:00.803Z,95884.14
2019-03-29T18:00:26.920Z,95888.64
2019-03-29T18:02:52.920Z,95890.05
2019-03-29T18:05:18.894Z,95887.45
2019-03-29T18:07:44.975Z,95892.98
2019-03-29T18:10:10.951Z,95896.87
2019-03-29T18:12:37.086Z,95903.25
2019-03-29T18:15:03.313Z,95907.22
2019-03-29T18:17:29.383Z,95902.03
2019-03-29T18:19:55.438Z,95905.89
2019-03-29T18:22:21.452Z,95914.06
2019-03-29T18:24:47.422Z,95908.20
2019-03-29T18:27:13.428Z,95905.73
2019-03-29T18:29:39.462Z,95906.80
2019-03-29T18:32:05.587Z,95907.48
2019-03-29T18:34:31.547Z,95908.91
2019-03-29T18:36:57.588Z,95908.98
2019-03-29T18:39:23.569Z,95909.16
2019-03-29T18:41:49.627Z,95911.78
2019-03-29T18:44:15.754Z,95907.75
2019-03-29T18:46:44.902Z,95909.45
2019-03-29T18:49:09.669Z,95917.30
2019-03-29T18:51:35.647Z,95914.05
2019-03-29T18:54:01.652Z,95919.35
2019-03-29T18:56:27.750Z,95916.82
2019-03-29T18:58:53.806Z,95920.66
2019-03-29T19:04:00.689Z,95915.97
2019-03-29T19:06:28.456Z,95913.52
2019-03-29T19:08:56.369Z,95918.70
2019-03-29T19:11:24.234Z,95917.05
2019-03-29T19:13:51.978Z,95918.55
2019-03-29T19:16:19.712Z,95920.88
2019-03-29T19:18:47.462Z,95915.77
2019-03-29T19:21:15.309Z,95920.78
2019-03-29T19:23:43.196Z,95920.31
2019-03-29T19:26:10.958Z,95917.16
2019-03-29T19:28:38.707Z,95922.25
2019-03-29T19:31:06.453Z,95915.36
2019-03-29T19:33:34.175Z,95912.58
2019-03-29T19:36:01.883Z,95918.52
2019-03-29T19:38:29.666Z,95922.14
2019-03-29T19:40:57.391Z,95920.55
2019-03-29T19:43:25.300Z,95917.93
2019-03-29T19:45:53.292Z,95916.23
2019-03-29T19:48:21.023Z,95920.70
2019-03-29T19:50:48.814Z,95914.39
2019-03-29T19:53:16.637Z,95917.43
2019-03-29T19:55:44.547Z,95919.84
2019-03-29T19:58:12.483Z,95925.63
2019-03-29T20:00:40.498Z,95917.53
2019-03-29T20:03:08.336Z,95919.71
2019-03-29T20:05:36.107Z,95918.02
2019-03-29T20:08:04.056Z,95910.64
2019-03-29T20:10:31.901Z,95919.35
2019-03-29T20:12:59.707Z,95914.14
2019-03-29T20:15:27.439Z,95918.52
2019-03-29T20:17:55.253Z,95916.06
2019-03-29T20:20:22.957Z,95908.58
2019-03-29T20:22:50.709Z,95909.20
2019-03-29T20:25:18.567Z,95907.52
2019-03-29T20:27:46.403Z,95907.37
2019-03-29T20:30:14.109Z,95905.33
2019-03-29T20:32:41.965Z,95905.20
2019-03-29T20:35:09.831Z,95905.59
2019-03-29T20:37:37.603Z,95906.16
2019-03-29T20:40:05.464Z,95906.39
2019-03-29T20:42:33.236Z,95904.70
2019-03-29T20:45:00.974Z,95905.94
2019-03-29T20:47:41.449Z,95903.15
2019-03-29T20:49:58.344Z,95895.44
2019-03-29T20:52:26.522Z,95900.88
2019-03-29T20:54:54.389Z,95902.08
2019-03-29T20:57:22.233Z,95900.02
2019-03-29T20:59:50.060Z,95902.95
2019-03-29T21:02:18.236Z,95909.58
2019-03-29T21:04:46.144Z,95912.25
2019-03-29T21:07:13.935Z,95917.19
2019-03-29T21:09:41.701Z,95916.22
2019-03-29T21:12:09.522Z,95912.47
2019-03-29T21:14:37.261Z,95916.23
2019-03-29T21:17:05.082Z,95912.60
2019-03-29T21:19:32.895Z,95905.60
2019-03-29T21:22:00.688Z,95908.24
2019-03-29T21:24:28.540Z,95919.23
2019-03-29T21:26:56.530Z,95910.86
2019-03-29T21:29:24.282Z,95909.71
2019-03-29T21:31:52.025Z,95918.70
2019-03-29T21:34:19.827Z,95916.15
2019-03-29T21:36:47.640Z,95919.33
2019-03-29T21:39:15.387Z,95919.33
2019-03-29T21:41:43.120Z,95920.37
2019-03-29T21:44:11.170Z,95920.00
2019-03-29T21:46:38.916Z,95918.55
2019-03-29T21:49:06.761Z,95913.98
2019-03-29T21:51:34.615Z,95920.92
2019-03-29T21:54:02.442Z,95917.58
2019-03-29T21:56:30.337Z,95915.02
2019-03-29T21:58:58.096Z,95915.41
2019-03-29T22:01:26.006Z,95914.19
2019-03-29T22:03:53.764Z,95910.52
2019-03-29T22:06:21.603Z,95913.00
2019-03-29T22:08:49.469Z,95908.85
2019-03-29T22:11:17.411Z,95908.31
2019-03-29T22:13:45.259Z,95906.14
2019-03-29T22:16:13.006Z,95909.55
2019-03-29T22:18:40.811Z,95909.83
2019-03-29T22:21:08.664Z,95907.09
2019-03-29T22:23:36.484Z,95907.09
2019-03-29T22:26:04.469Z,95909.02
2019-03-29T22:28:32.327Z,95916.47
2019-03-29T22:31:00.052Z,95929.50
2019-03-29T22:33:27.830Z,95932.64
2019-03-29T22:35:55.610Z,95928.31
2019-03-29T22:38:23.346Z,95931.52
2019-03-29T22:40:51.135Z,95931.66
2019-03-29T22:43:18.863Z,95917.41
2019-03-29T22:45:47.318Z,95917.41
2019-03-29T22:48:15.228Z,95930.30
2019-03-29T22:50:43.012Z,95902.42
2019-03-29T22:53:10.794Z,95902.42
2019-03-29T22:55:38.867Z,95906.51
2019-03-29T22:58:06.619Z,95922.13
2019-03-29T23:00:38.751Z,95922.13
2019-03-29T23:03:06.579Z,95916.40
2019-03-29T23:05:34.357Z,95930.72
2019-03-29T23:08:02.207Z,95919.52
2019-03-29T23:10:30.090Z,95920.89
2019-03-29T23:12:57.947Z,95917.14
2019-03-29T23:15:25.729Z,95889.33
2019-03-29T23:17:53.579Z,95889.33
2019-03-29T23:20:21.353Z,95907.84
2019-03-29T23:22:49.228Z,95910.36
2019-03-29T23:25:17.175Z,95896.02
2019-03-29T23:27:44.897Z,95898.48
2019-03-29T23:30:12.638Z,95893.63
2019-03-29T23:32:40.485Z,95897.32
2019-03-29T23:35:08.255Z,95889.02
2019-03-29T23:37:36.021Z,95866.12
2019-03-29T23:40:04.044Z,95864.77
2019-03-29T23:42:31.459Z,95864.77
2019-03-29T23:44:59.225Z,95885.13
2019-03-29T23:47:26.989Z,95882.25
2019-03-29T23:49:54.690Z,95882.32
2019-03-29T23:52:22.402Z,95875.89
2019-03-29T23:54:50.163Z,95877.66
2019-03-29T23:57:17.888Z,95871.84
2019-03-29T23:59:46.000Z,95872.98
